Latest Weather Observations for Inner Beacon

IDQ60801

Issued at 1:02 pm EST Thursday 2 April 2015 (issued every 30 minutes, with the page automatically refreshed every 10 minutes)

About weather observations | Map of weather stations | Latest weather observations for QLD | Other Formats
Station Details ID: 040926 Name: INNER RECIPROCAL MARKER Lat: -27.26 Lon: 153.24 Height: 20.0 m
Data from the previous 72 hours. | See also: Recent months for locations in Queensland
Date/Time
EST
Temp
°C
App
Temp
°C
Dew
Point
Rel
Hum
%
Delta-T
°C
Wind Press
QNH
hPa
Press
MSL
hPa
Rain
since 9 am
mm
Dir
 
Spd
km/h
Gust
km/h
Spd
kts
Gust
kts
02/01:00pm - - - - - E 32 39 17 21 - - -
02/12:30pm - - - - - E 41 54 22 29 - - -
02/12:00pm - - - - - ENE 33 41 18 22 - - -
02/11:39am - - - - - E 33 46 18 25 - - -
02/11:30am - - - - - ESE 28 35 15 19 - - -
02/11:00am - - - - - E 28 39 15 21 - - -
02/10:57am - - - - - E 28 39 15 21 - - -
02/10:30am - - - - - ESE 17 24 9 13 - - -
02/10:00am - - - - - ESE 32 39 17 21 - - -
02/09:30am - - - - - ESE 26 33 14 18 - - -
02/09:00am - - - - - ESE 22 28 12 15 - - -
02/08:30am - - - - - ESE 26 30 14 16 - - -
02/08:00am - - - - - E 24 33 13 18 - - -
02/07:30am - - - - - E 28 37 15 20 - - -
02/07:00am - - - - - E 30 35 16 19 - - -
02/06:30am - - - - - ESE 20 32 11 17 - - -
02/06:00am - - - - - S 19 22 10 12 - - -
02/05:30am - - - - - SSW 20 24 11 13 - - -
02/05:00am - - - - - SSW 20 22 11 12 - - -
02/04:30am - - - - - SSW 19 22 10 12 - - -
02/04:00am - - - - - SSW 20 24 11 13 - - -
02/03:30am - - - - - SSW 24 30 13 16 - - -
02/03:00am - - - - - S 22 28 12 15 - - -
02/02:30am - - - - - S 20 24 11 13 - - -
02/02:00am - - - - - S 19 24 10 13 - - -
02/01:30am - - - - - S 32 35 17 19 - - -
02/01:00am - - - - - ESE 22 35 12 19 - - -
02/12:30am - - - - - SSE 17 20 9 11 - - -
02/12:00am - - - - - ESE 26 37 14 20 - - -
 
Date/Time
EST
Temp
°C
App
Temp
°C
Dew
Point
Rel
Hum
%
Delta-T
°C
Wind Press
QNH
hPa
Press
MSL
hPa
Rain
since 9 am
mm
Dir
 
Spd
km/h
Gust
km/h
Spd
kts
Gust
kts
01/11:30pm - - - - - ENE 13 19 7 10 - - -
01/11:00pm - - - - - E 24 33 13 18 - - -
01/10:30pm - - - - - NE 26 33 14 18 - - -
01/10:00pm - - - - - E 20 28 11 15 - - -
01/09:30pm - - - - - E 28 35 15 19 - - -
01/09:22pm - - - - - ENE 28 35 15 19 - - -
01/09:00pm - - - - - ENE 41 52 22 28 - - -
01/08:30pm - - - - - ENE 32 39 17 21 - - -
01/08:12pm - - - - - ENE 33 46 18 25 - - -
01/08:00pm - - - - - E 30 37 16 20 - - -
01/07:30pm - - - - - E 35 41 19 22 - - -
01/07:00pm - - - - - E 32 44 17 24 - - -
01/06:30pm - - - - - E 32 41 17 22 - - -
01/06:00pm - - - - - SE 20 26 11 14 - - -
01/05:30pm - - - - - SSE 32 43 17 23 - - -
01/05:00pm - - - - - SE 30 39 16 21 - - -
01/04:30pm - - - - - ESE 33 41 18 22 - - -
01/04:00pm - - - - - ESE 28 37 15 20 - - -
01/03:30pm - - - - - E 30 39 16 21 - - -
01/03:00pm - - - - - ESE 35 39 19 21 - - -
01/02:30pm - - - - - ESE 26 32 14 17 - - -
01/02:00pm - - - - - ESE 28 35 15 19 - - -
01/01:30pm - - - - - ESE 26 32 14 17 - - -
01/01:00pm - - - - - ESE 24 32 13 17 - - -
01/12:30pm - - - - - ESE 22 32 12 17 - - -
01/12:00pm - - - - - ESE 24 32 13 17 - - -
01/11:30am - - - - - S 20 26 11 14 - - -
01/11:00am - - - - - S 20 24 11 13 - - -
01/10:30am - - - - - SW 19 26 10 14 - - -
01/10:00am - - - - - SSW 22 28 12 15 - - -
01/09:30am - - - - - S 22 26 12 14 - - -
01/09:00am - - - - - S 30 37 16 20 - - -
01/08:30am - - - - - ESE 30 39 16 21 - - -
01/08:00am - - - - - ESE 32 41 17 22 - - -
01/07:30am - - - - - ESE 33 41 18 22 - - -
01/07:00am - - - - - ESE 30 43 16 23 - - -
01/06:30am - - - - - ESE 24 32 13 17 - - -
01/06:00am - - - - - SE 30 39 16 21 - - -
01/05:30am - - - - - E 15 20 8 11 - - -
01/05:00am - - - - - ENE 24 32 13 17 - - -
01/04:30am - - - - - NE 33 39 18 21 - - -
01/04:05am - - - - - NNE 32 56 17 30 - - -
01/04:00am - - - - - NNE 26 44 14 24 - - -
01/03:30am - - - - - WSW 20 24 11 13 - - -
01/03:00am - - - - - SW 13 17 7 9 - - -
01/02:30am - - - - - WSW 9 11 5 6 - - -
01/02:00am - - - - - SSE 4 9 2 5 - - -
01/01:30am - - - - - E 13 19 7 10 - - -
01/01:00am - - - - - SE 19 22 10 12 - - -
01/12:30am - - - - - S 17 20 9 11 - - -
01/12:00am - - - - - SE 11 17 6 9 - - -
 
Date/Time
EST
Temp
°C
App
Temp
°C
Dew
Point
Rel
Hum
%
Delta-T
°C
Wind Press
QNH
hPa
Press
MSL
hPa
Rain
since 9 am
mm
Dir
 
Spd
km/h
Gust
km/h
Spd
kts
Gust
kts
31/11:30pm - - - - - ESE 11 22 6 12 - - -
31/11:00pm - - - - - SE 17 22 9 12 - - -
31/10:30pm - - - - - SE 22 28 12 15 - - -
31/10:00pm - - - - - E 26 32 14 17 - - -
31/09:30pm - - - - - SE 35 39 19 21 - - -
31/09:00pm - - - - - S 32 37 17 20 - - -
31/08:58pm - - - - - S 33 37 18 20 - - -
31/08:30pm - - - - - SSE 46 54 25 29 - - -
31/08:17pm - - - - - ESE 28 46 15 25 - - -
31/08:00pm - - - - - ESE 22 30 12 16 - - -
31/07:30pm - - - - - ESE 28 33 15 18 - - -
31/07:00pm - - - - - ESE 30 35 16 19 - - -
31/06:30pm - - - - - ESE 30 35 16 19 - - -
31/06:00pm - - - - - ESE 26 32 14 17 - - -
31/05:30pm - - - - - E 24 32 13 17 - - -
31/05:00pm - - - - - E 24 32 13 17 - - -
31/04:30pm - - - - - E 22 30 12 16 - - -
31/04:00pm - - - - - E 26 32 14 17 - - -
31/03:30pm - - - - - ESE 20 28 11 15 - - -
31/03:00pm - - - - - ESE 20 24 11 13 - - -
31/02:30pm - - - - - ESE 22 26 12 14 - - -
31/02:00pm - - - - - SE 22 26 12 14 - - -
31/01:30pm - - - - - SE 22 26 12 14 - - -
31/01:00pm - - - - - SE 26 30 14 16 - - -
31/12:30pm - - - - - SE 22 26 12 14 - - -
31/12:00pm - - - - - SE 20 24 11 13 - - -
31/11:30am - - - - - SE 22 33 12 18 - - -
31/11:00am - - - - - SSE 17 20 9 11 - - -
31/10:30am - - - - - SE 20 28 11 15 - - -
31/10:00am - - - - - ESE 11 19 6 10 - - -
31/09:30am - - - - - ESE 15 19 8 10 - - -
31/09:00am - - - - - ESE 13 17 7 9 - - -
31/08:30am - - - - - ESE 13 20 7 11 - - -
31/08:00am - - - - - E 19 22 10 12 - - -
31/07:30am - - - - - ESE 13 17 7 9 - - -
31/07:00am - - - - - E 15 20 8 11 - - -
31/06:30am - - - - - E 17 20 9 11 - - -
31/06:00am - - - - - E 17 20 9 11 - - -
31/05:30am - - - - - E 13 24 7 13 - - -
31/05:00am - - - - - ESE 15 19 8 10 - - -
31/04:30am - - - - - ESE 17 19 9 10 - - -
31/04:00am - - - - - SE 17 20 9 11 - - -
31/03:30am - - - - - ESE 15 19 8 10 - - -
31/03:00am - - - - - ESE 13 15 7 8 - - -
31/02:30am - - - - - E 13 17 7 9 - - -
31/02:00am - - - - - E 17 20 9 11 - - -
31/01:30am - - - - - E 19 24 10 13 - - -
31/01:00am - - - - - E 17 22 9 12 - - -
31/12:30am - - - - - E 17 20 9 11 - - -
31/12:00am - - - - - E 15 19 8 10 - - -
 
Date/Time
EST
Temp
°C
App
Temp
°C
Dew
Point
Rel
Hum
%
Delta-T
°C
Wind Press
QNH
hPa
Press
MSL
hPa
Rain
since 9 am
mm
Dir
 
Spd
km/h
Gust
km/h
Spd
kts
Gust
kts
30/11:30pm - - - - - E 19 22 10 12 - - -
30/11:00pm - - - - - E 20 24 11 13 - - -
30/10:30pm - - - - - ENE 19 24 10 13 - - -
30/10:00pm - - - - - ESE 13 19 7 10 - - -
30/09:30pm - - - - - E 13 19 7 10 - - -
30/09:00pm - - - - - ESE 13 17 7 9 - - -
30/08:30pm - - - - - ESE 13 17 7 9 - - -
30/08:00pm - - - - - E 13 19 7 10 - - -
30/07:30pm - - - - - E 13 17 7 9 - - -
30/07:00pm - - - - - E 15 19 8 10 - - -
30/06:30pm - - - - - E 17 22 9 12 - - -
30/06:00pm - - - - - E 15 20 8 11 - - -
30/05:30pm - - - - - ESE 13 17 7 9 - - -
30/05:00pm - - - - - E 13 19 7 10 - - -
30/04:30pm - - - - - E 15 17 8 9 - - -
30/04:00pm - - - - - E 19 24 10 13 - - -
30/03:30pm - - - - - E 19 22 10 12 - - -
30/03:00pm - - - - - E 13 19 7 10 - - -
30/02:30pm - - - - - E 15 20 8 11 - - -
30/02:00pm - - - - - E 19 22 10 12 - - -
30/01:30pm - - - - - E 19 22 10 12 - - -

Other Formats:

Comma delimited format used in spreadsheet applications
http://www.bom.gov.au/fwo/IDQ60801/IDQ60801.94590.axf

JavaScript Object Notation format (JSON) in row-major order
http://www.bom.gov.au/fwo/IDQ60801/IDQ60801.94590.json